Time;durP1;ratioP1;P1;durP2;ratioP2;P2;SDS_P1;SDS_P2;PMS_P1;PMS_P2;Temp;Humidity;BMP_temperature;BMP_pressure;BME280_temperature;BME280_humidity;BME280_pressure;Samples;Min_cycle;Max_cycle;Signal;HPM_P1;HPM_P2
2022/02/12 00:02:25;;;;;;;20.75;5.53;;;1.40;99.90;;;;;;5019410;28;20490;-54
2022/02/12 00:04:50;;;;;;;25.13;5.00;;;1.40;99.90;;;;;;5028193;28;20416;-58
2022/02/12 00:07:16;;;;;;;27.52;6.43;;;1.30;99.90;;;;;;5030218;28;20095;-58
2022/02/12 00:09:41;;;;;;;31.35;5.47;;;1.30;99.90;;;;;;5029868;28;20037;-57
2022/02/12 00:12:07;;;;;;;21.27;4.43;;;1.30;99.90;;;;;;5029915;28;20025;-57
2022/02/12 00:14:33;;;;;;;28.15;5.05;;;1.30;99.90;;;;;;5029950;28;20388;-59
2022/02/12 00:16:59;;;;;;;17.15;5.50;;;1.30;99.90;;;;;;5029633;28;20037;-56
2022/02/12 00:19:24;;;;;;;33.30;5.30;;;1.30;99.90;;;;;;5025769;28;20026;-53
2022/02/12 00:21:50;;;;;;;35.20;6.40;;;1.30;99.90;;;;;;5011531;28;20060;-58
2022/02/12 00:24:15;;;;;;;33.30;5.75;;;1.30;99.90;;;;;;5022291;28;20379;-60
2022/02/12 00:26:41;;;;;;;22.30;5.75;;;1.20;99.90;;;;;;5011799;28;20099;-56
2022/02/12 00:29:07;;;;;;;32.22;5.72;;;1.20;99.90;;;;;;5029824;28;20108;-56
2022/02/12 00:31:33;;;;;;;28.23;6.30;;;1.20;99.90;;;;;;5023303;28;20033;-56
2022/02/12 00:33:58;;;;;;;25.60;5.97;;;1.20;99.90;;;;;;5009672;28;20022;-57
2022/02/12 00:36:24;;;;;;;24.67;6.40;;;1.20;99.90;;;;;;5009308;28;20038;-56
2022/02/12 00:38:51;;;;;;;30.58;6.28;;;1.20;99.90;;;;;;5021725;28;20029;-56
2022/02/12 00:41:16;;;;;;;30.83;5.50;;;1.20;99.90;;;;;;5029938;28;20499;-57
2022/02/12 00:43:42;;;;;;;22.70;5.32;;;1.20;99.90;;;;;;5029328;28;20044;-56
2022/02/12 00:46:07;;;;;;;22.20;5.82;;;1.20;99.90;;;;;;5044540;28;20457;-55
2022/02/12 00:48:33;;;;;;;31.13;7.10;;;1.20;99.90;;;;;;5029541;28;20029;-55
2022/02/12 00:50:59;;;;;;;32.58;6.40;;;1.10;99.90;;;;;;5029507;28;20029;-56
2022/02/12 00:53:29;;;;;;;21.17;5.28;;;1.10;99.90;;;;;;5029631;28;20475;-57
2022/02/12 00:55:56;;;;;;;25.10;5.22;;;1.10;99.90;;;;;;5028452;28;20073;-57
2022/02/12 00:58:22;;;;;;;26.80;5.22;;;1.10;99.90;;;;;;5029637;28;20073;-61
2022/02/12 01:00:48;;;;;;;24.67;7.13;;;1.10;99.90;;;;;;5029519;28;20033;-57
2022/02/12 01:03:13;;;;;;;20.08;6.80;;;1.10;99.90;;;;;;5029878;28;20037;-57
2022/02/12 01:05:39;;;;;;;29.77;7.35;;;1.00;99.90;;;;;;5028641;28;20383;-56
2022/02/12 01:08:06;;;;;;;25.17;6.32;;;1.00;99.90;;;;;;5030200;28;20084;-56
2022/02/12 01:10:33;;;;;;;28.33;5.65;;;1.10;99.90;;;;;;5029407;28;20029;-55
2022/02/12 01:13:00;;;;;;;35.35;7.38;;;1.10;99.90;;;;;;5029394;28;20053;-58
2022/02/12 01:15:25;;;;;;;28.73;6.30;;;1.10;99.90;;;;;;5028861;28;20060;-56
2022/02/12 01:17:51;;;;;;;25.73;6.60;;;1.10;99.90;;;;;;5029471;28;20463;-57
2022/02/12 01:20:17;;;;;;;24.48;5.55;;;1.10;99.90;;;;;;5029706;28;20093;-56
2022/02/12 01:22:43;;;;;;;26.17;5.75;;;1.10;99.90;;;;;;5028963;28;20109;-59
2022/02/12 01:25:09;;;;;;;26.88;5.43;;;1.10;99.90;;;;;;5028722;28;20555;-58
2022/02/12 01:27:37;;;;;;;25.20;5.88;;;1.10;99.90;;;;;;5029309;28;20068;-58
2022/02/12 01:30:04;;;;;;;24.50;5.57;;;1.10;99.90;;;;;;5029089;28;20049;-57
2022/02/12 01:32:30;;;;;;;23.35;5.47;;;1.10;99.90;;;;;;5029212;28;20028;-55
2022/02/12 01:34:56;;;;;;;27.05;5.32;;;1.10;99.90;;;;;;5031245;28;20033;-56
2022/02/12 01:37:23;;;;;;;25.73;5.82;;;1.00;99.90;;;;;;5032761;28;20479;-58
2022/02/12 01:39:49;;;;;;;27.33;6.13;;;1.00;99.90;;;;;;5032735;28;20092;-56
2022/02/12 01:42:14;;;;;;;34.55;6.75;;;1.00;99.90;;;;;;5032986;28;20053;-58
2022/02/12 01:44:41;;;;;;;20.13;5.70;;;1.00;99.90;;;;;;5032968;28;20036;-54
2022/02/12 01:47:08;;;;;;;27.88;6.15;;;1.00;99.90;;;;;;5032421;28;20021;-55
2022/02/12 01:49:34;;;;;;;24.88;6.78;;;1.00;99.90;;;;;;5032896;28;20148;-57
2022/02/12 01:52:01;;;;;;;19.08;6.45;;;1.00;99.90;;;;;;5032379;28;20178;-55
2022/02/12 01:54:28;;;;;;;25.67;5.28;;;0.90;99.90;;;;;;5032899;28;20083;-57
2022/02/12 01:56:56;;;;;;;17.58;5.57;;;0.90;99.90;;;;;;5032326;28;20049;-59
2022/02/12 01:59:24;;;;;;;23.83;5.43;;;0.90;99.90;;;;;;5032685;28;20032;-60
2022/02/12 02:01:50;;;;;;;29.13;5.93;;;0.90;99.90;;;;;;5032577;28;20030;-56
2022/02/12 02:04:17;;;;;;;26.60;6.03;;;0.90;99.90;;;;;;5048028;28;20032;-56
2022/02/12 02:06:43;;;;;;;22.45;5.28;;;0.90;99.90;;;;;;5032121;28;20083;-55
2022/02/12 02:09:09;;;;;;;50.80;7.03;;;0.90;99.90;;;;;;5032815;28;20076;-56
2022/02/12 02:11:36;;;;;;;22.55;5.60;;;0.90;99.90;;;;;;5032185;28;20506;-54
2022/02/12 02:14:05;;;;;;;25.48;5.88;;;0.90;99.90;;;;;;5032443;28;20048;-58
2022/02/12 02:16:30;;;;;;;38.08;5.68;;;0.90;99.90;;;;;;5031993;28;20029;-57
2022/02/12 02:18:56;;;;;;;25.67;6.13;;;0.90;99.90;;;;;;5032720;28;20071;-57
2022/02/12 02:21:26;;;;;;;18.98;5.15;;;1.00;99.90;;;;;;5032415;28;20033;-59
2022/02/12 02:23:53;;;;;;;24.05;5.75;;;1.00;99.90;;;;;;5032027;28;20065;-57
2022/02/12 02:26:19;;;;;;;24.00;6.93;;;1.00;99.90;;;;;;5032139;28;20116;-57
2022/02/12 02:28:46;;;;;;;23.15;5.32;;;1.00;99.90;;;;;;5031754;28;20032;-55
2022/02/12 02:31:12;;;;;;;21.67;5.35;;;1.10;99.90;;;;;;5032081;28;20565;-57
2022/02/12 02:33:38;;;;;;;22.35;5.72;;;1.10;99.90;;;;;;5031836;28;20029;-57
2022/02/12 02:36:03;;;;;;;27.13;5.82;;;1.10;99.90;;;;;;5031550;28;20083;-55
2022/02/12 02:38:31;;;;;;;28.83;5.25;;;1.10;99.90;;;;;;5032027;28;20037;-56
2022/02/12 02:40:57;;;;;;;25.10;5.45;;;1.20;99.90;;;;;;5031676;28;20537;-59
2022/02/12 02:43:23;;;;;;;18.08;5.07;;;1.20;99.90;;;;;;5031801;28;20569;-57
2022/02/12 02:45:49;;;;;;;28.67;5.93;;;1.30;99.90;;;;;;5030884;28;20420;-56
2022/02/12 02:48:15;;;;;;;21.08;5.78;;;1.30;99.90;;;;;;5031960;28;20029;-57
2022/02/12 02:56:12;;;;;;;19.58;5.95;;;1.40;99.90;;;;;;5031552;28;20115;-58
2022/02/12 02:58:46;;;;;;;28.90;5.40;;;1.40;99.90;;;;;;5031306;28;20039;-56
2022/02/12 03:01:17;;;;;;;27.90;5.78;;;1.40;99.90;;;;;;5031740;28;20057;-54
2022/02/12 03:03:45;;;;;;;20.92;5.18;;;1.30;99.90;;;;;;5031326;28;20084;-57
2022/02/12 03:06:12;;;;;;;18.85;5.85;;;1.40;99.90;;;;;;5030925;28;20026;-57
2022/02/12 03:08:39;;;;;;;42.13;6.68;;;1.40;99.90;;;;;;5031379;28;20056;-57
2022/02/12 03:11:05;;;;;;;27.27;6.10;;;1.40;99.90;;;;;;5031378;28;20125;-57
2022/02/12 03:13:31;;;;;;;19.90;6.03;;;1.40;99.90;;;;;;5031287;28;20402;-58
2022/02/12 03:15:57;;;;;;;22.40;6.85;;;1.40;99.90;;;;;;5030618;28;20097;-52
2022/02/12 03:18:23;;;;;;;21.98;5.82;;;1.50;99.90;;;;;;5031033;28;20029;-55
2022/02/12 03:20:49;;;;;;;23.00;6.57;;;1.50;99.90;;;;;;5031019;28;20340;-57
2022/02/12 03:23:16;;;;;;;31.23;6.97;;;1.50;99.90;;;;;;5031139;28;20096;-56
2022/02/12 03:25:42;;;;;;;24.00;7.05;;;1.50;99.90;;;;;;5030096;28;20141;-57
2022/02/12 03:28:08;;;;;;;28.52;6.68;;;1.60;99.90;;;;;;5031296;28;20136;-56
2022/02/12 03:30:39;;;;;;;24.02;6.68;;;1.50;99.90;;;;;;5030773;28;20024;-59
2022/02/12 03:33:06;;;;;;;24.58;6.25;;;1.50;99.90;;;;;;5031175;28;20108;-56
2022/02/12 03:35:32;;;;;;;32.00;7.53;;;1.40;99.90;;;;;;5030234;28;20057;-57
2022/02/12 03:38:07;;;;;;;34.55;7.53;;;1.40;99.90;;;;;;5030780;28;20037;-57
2022/02/12 03:40:34;;;;;;;28.25;6.90;;;1.40;99.90;;;;;;5030801;28;20041;-52
2022/02/12 03:43:00;;;;;;;29.92;6.90;;;1.40;99.90;;;;;;5030855;28;20032;-56
2022/02/12 03:45:26;;;;;;;38.85;7.25;;;1.30;99.90;;;;;;5030310;28;20025;-53
2022/02/12 03:47:51;;;;;;;26.98;7.45;;;1.30;99.90;;;;;;5030597;28;20033;-54
2022/02/12 03:50:17;;;;;;;27.08;6.72;;;1.20;99.90;;;;;;5030631;28;20172;-52
2022/02/12 03:52:43;;;;;;;28.38;7.45;;;1.20;99.90;;;;;;5030740;28;20029;-52
2022/02/12 03:55:09;;;;;;;36.80;7.32;;;1.20;99.90;;;;;;5029849;28;20388;-54
2022/02/12 03:57:36;;;;;;;29.27;7.28;;;1.30;99.90;;;;;;5030034;28;20029;-53
2022/02/12 04:00:11;;;;;;;33.60;7.25;;;1.30;99.90;;;;;;5030663;28;20399;-53
2022/02/12 04:02:41;;;;;;;37.28;7.50;;;1.30;99.90;;;;;;5030730;28;20026;-58
2022/02/12 04:05:09;;;;;;;22.95;6.45;;;1.30;99.90;;;;;;5030021;28;20029;-56
2022/02/12 04:07:40;;;;;;;37.65;7.07;;;1.40;99.90;;;;;;5030598;28;20030;-55
2022/02/12 04:10:07;;;;;;;31.50;7.15;;;1.50;99.90;;;;;;5031270;28;20029;-58
2022/02/12 04:12:33;;;;;;;22.55;6.47;;;1.50;99.90;;;;;;5030729;28;20068;-58
2022/02/12 04:14:58;;;;;;;26.13;5.85;;;1.60;99.90;;;;;;5029724;28;20111;-56
2022/02/12 04:17:24;;;;;;;25.95;6.55;;;1.60;99.90;;;;;;5030194;28;20034;-56
2022/02/12 04:19:51;;;;;;;25.30;6.72;;;1.60;99.90;;;;;;5030318;28;20138;-54
2022/02/12 04:22:16;;;;;;;29.42;6.85;;;1.50;99.90;;;;;;5031202;28;20033;-55
2022/02/12 04:24:42;;;;;;;26.65;6.18;;;1.50;99.90;;;;;;5030527;28;20034;-56
2022/02/12 04:27:08;;;;;;;25.80;5.90;;;1.40;99.90;;;;;;5029924;28;20087;-56
2022/02/12 04:29:33;;;;;;;25.70;6.95;;;1.40;99.90;;;;;;5029990;28;20030;-54
2022/02/12 04:31:59;;;;;;;26.70;7.22;;;1.40;99.90;;;;;;5029910;28;20082;-57
2022/02/12 04:34:24;;;;;;;23.70;6.32;;;1.40;99.90;;;;;;5029827;28;20063;-55
2022/02/12 04:36:50;;;;;;;25.40;7.20;;;1.40;99.90;;;;;;5029299;28;20029;-58
2022/02/12 04:39:16;;;;;;;26.90;6.88;;;1.40;99.90;;;;;;5030090;28;20497;-57
2022/02/12 04:41:42;;;;;;;31.23;6.82;;;1.30;99.90;;;;;;5029674;28;20038;-56
2022/02/12 04:44:08;;;;;;;26.67;7.10;;;1.40;99.90;;;;;;5029991;28;20036;-56
2022/02/12 04:46:34;;;;;;;29.90;7.40;;;1.40;99.90;;;;;;5029193;28;20033;-55
2022/02/12 04:48:59;;;;;;;32.08;7.28;;;1.40;99.90;;;;;;5029345;28;20037;-55
2022/02/12 04:51:25;;;;;;;30.83;7.95;;;1.40;99.90;;;;;;5029476;28;20045;-55
2022/02/12 04:53:51;;;;;;;26.20;7.15;;;1.50;99.90;;;;;;5029735;28;20128;-56
2022/02/12 04:56:18;;;;;;;27.65;6.72;;;1.40;99.90;;;;;;5029506;28;20025;-56
2022/02/12 04:58:44;;;;;;;27.70;7.75;;;1.40;99.90;;;;;;5029189;28;20026;-53
2022/02/12 05:01:20;;;;;;;23.48;6.70;;;1.50;99.90;;;;;;5028568;28;20033;-56
2022/02/12 05:03:50;;;;;;;29.73;6.30;;;1.50;99.90;;;;;;5029472;28;20037;-57
2022/02/12 05:06:17;;;;;;;28.80;7.40;;;1.60;99.90;;;;;;5029313;28;20065;-57
2022/02/12 05:08:43;;;;;;;22.60;6.30;;;1.70;99.90;;;;;;5031216;28;20047;-57
2022/02/12 05:11:09;;;;;;;23.50;6.60;;;1.70;99.90;;;;;;5035006;28;20160;-56
2022/02/12 05:13:35;;;;;;;24.83;6.78;;;1.70;99.90;;;;;;5036221;28;20033;-56
2022/02/12 05:16:00;;;;;;;21.83;6.00;;;1.70;99.90;;;;;;5035580;28;20037;-57
2022/02/12 05:18:26;;;;;;;22.13;6.10;;;1.60;99.90;;;;;;5035895;28;20040;-52
2022/02/12 05:20:51;;;;;;;19.67;5.72;;;1.70;99.90;;;;;;5035912;28;20219;-59
2022/02/12 05:23:17;;;;;;;29.45;6.28;;;1.70;99.90;;;;;;5036379;28;20147;-55
2022/02/12 05:25:42;;;;;;;24.13;5.95;;;1.60;99.90;;;;;;5034876;28;20036;-55
2022/02/12 05:28:08;;;;;;;24.83;5.55;;;1.60;99.90;;;;;;5036417;28;20034;-55
2022/02/12 05:30:34;;;;;;;28.45;6.40;;;1.60;99.90;;;;;;5035535;28;20021;-55
2022/02/12 05:33:00;;;;;;;30.02;5.53;;;1.50;99.90;;;;;;5035872;28;20068;-55
2022/02/12 05:35:26;;;;;;;23.30;6.60;;;1.40;99.90;;;;;;5035149;28;20033;-55
2022/02/12 05:37:52;;;;;;;24.10;6.65;;;1.40;99.90;;;;;;5036264;28;20047;-54
2022/02/12 05:40:18;;;;;;;31.25;6.30;;;1.40;99.90;;;;;;5035965;28;20093;-55
2022/02/12 05:42:44;;;;;;;23.02;5.63;;;1.40;99.90;;;;;;5035686;28;20116;-58
2022/02/12 05:45:10;;;;;;;20.05;5.72;;;1.40;99.90;;;;;;5035234;28;20065;-59
2022/02/12 05:47:40;;;;;;;24.27;5.70;;;1.40;99.90;;;;;;5035709;28;20053;-56
2022/02/12 05:50:06;;;;;;;29.67;5.80;;;1.40;99.90;;;;;;5036105;28;20036;-54
2022/02/12 05:52:32;;;;;;;23.67;5.00;;;1.40;99.90;;;;;;5035662;28;20029;-57
2022/02/12 05:54:57;;;;;;;28.15;5.13;;;1.50;99.90;;;;;;5035362;28;20032;-56
2022/02/12 05:57:23;;;;;;;23.27;4.63;;;1.50;99.90;;;;;;5035420;28;20036;-55
2022/02/12 05:59:48;;;;;;;22.98;3.95;;;1.50;99.90;;;;;;5036428;28;20037;-56
2022/02/12 06:02:14;;;;;;;34.45;4.70;;;1.50;99.90;;;;;;5036320;28;20087;-56
2022/02/12 06:04:40;;;;;;;20.73;4.93;;;1.60;99.90;;;;;;5035534;28;20033;-57
2022/02/12 06:07:05;;;;;;;18.15;4.13;;;1.60;99.90;;;;;;5035400;28;20156;-56
2022/02/12 06:09:31;;;;;;;20.35;4.40;;;1.50;99.90;;;;;;5035318;28;20506;-56
2022/02/12 06:11:56;;;;;;;16.92;3.25;;;1.40;99.90;;;;;;5035297;28;20120;-58
2022/02/12 06:14:22;;;;;;;23.38;3.92;;;1.50;99.90;;;;;;5035095;28;20026;-57
2022/02/12 06:16:48;;;;;;;21.98;3.83;;;1.50;99.90;;;;;;5034804;28;20067;-58
2022/02/12 06:19:13;;;;;;;22.10;4.00;;;1.50;99.90;;;;;;5035465;28;20097;-57
2022/02/12 06:21:39;;;;;;;18.52;3.22;;;1.50;99.90;;;;;;5031381;28;20390;-57
2022/02/12 06:24:05;;;;;;;23.73;3.95;;;1.50;99.90;;;;;;5032201;28;20021;-58
2022/02/12 06:26:30;;;;;;;26.05;4.03;;;1.50;99.90;;;;;;5031639;28;20025;-58
2022/02/12 06:28:56;;;;;;;20.35;3.40;;;1.50;99.90;;;;;;5032132;28;20083;-57
2022/02/12 06:31:22;;;;;;;19.50;3.58;;;1.50;99.90;;;;;;5031803;28;20506;-58
2022/02/12 06:33:47;;;;;;;22.70;3.90;;;1.40;99.90;;;;;;5032500;28;20057;-57
2022/02/12 06:36:13;;;;;;;21.02;3.92;;;1.40;99.90;;;;;;5031537;28;20131;-59
2022/02/12 06:38:38;;;;;;;27.45;4.65;;;1.40;99.90;;;;;;5032192;28;20426;-57
2022/02/12 06:41:04;;;;;;;44.80;4.20;;;1.40;99.90;;;;;;5032058;28;20021;-58
2022/02/12 06:43:30;;;;;;;19.35;3.67;;;1.40;99.90;;;;;;5031796;28;20040;-59
2022/02/12 06:45:55;;;;;;;18.48;4.65;;;1.40;99.90;;;;;;5031114;28;20057;-58
2022/02/12 06:48:21;;;;;;;15.27;3.60;;;1.50;99.90;;;;;;5031992;28;20033;-60
2022/02/12 06:50:47;;;;;;;17.77;2.72;;;1.50;99.90;;;;;;5031430;28;20044;-56
2022/02/12 06:53:13;;;;;;;18.08;3.88;;;1.50;99.90;;;;;;5031791;28;20030;-59
2022/02/12 06:55:38;;;;;;;23.20;3.13;;;1.50;99.90;;;;;;5031149;28;20073;-59
2022/02/12 06:58:04;;;;;;;32.40;3.88;;;1.50;99.90;;;;;;5031496;28;20025;-58
2022/02/12 07:00:30;;;;;;;17.38;3.50;;;1.50;99.90;;;;;;5031385;28;20387;-55
2022/02/12 07:02:56;;;;;;;20.00;4.13;;;1.50;99.90;;;;;;5031507;28;20029;-58
2022/02/12 07:05:22;;;;;;;31.25;3.75;;;1.40;99.90;;;;;;5030820;28;20034;-59
2022/02/12 07:07:50;;;;;;;16.98;3.58;;;1.40;99.90;;;;;;5031449;28;20538;-58
2022/02/12 07:10:17;;;;;;;24.98;4.20;;;1.50;99.90;;;;;;5031662;28;20464;-58
2022/02/12 07:12:43;;;;;;;17.23;3.08;;;1.50;99.90;;;;;;5031227;28;20045;-58
2022/02/12 07:15:09;;;;;;;17.35;2.80;;;1.60;99.90;;;;;;5030375;28;20709;-57
2022/02/12 07:17:39;;;;;;;23.33;3.58;;;1.60;99.90;;;;;;5031325;28;20483;-57
2022/02/12 07:20:06;;;;;;;19.10;3.10;;;1.60;99.90;;;;;;5031219;28;20161;-55
2022/02/12 07:22:32;;;;;;;11.05;2.80;;;1.60;99.90;;;;;;5031030;28;20095;-58
2022/02/12 07:24:57;;;;;;;20.60;4.18;;;1.60;99.90;;;;;;5030578;28;20034;-57
2022/02/12 07:27:23;;;;;;;20.20;3.50;;;1.70;99.90;;;;;;5031020;28;20037;-59
2022/02/12 07:29:49;;;;;;;16.88;3.95;;;1.70;99.90;;;;;;5031523;28;20037;-59
2022/02/12 07:32:14;;;;;;;29.75;4.20;;;1.70;99.90;;;;;;5031039;28;20483;-58
2022/02/12 07:34:40;;;;;;;27.40;3.75;;;1.70;99.90;;;;;;5031192;28;20036;-58
2022/02/12 07:37:06;;;;;;;25.98;3.88;;;1.70;99.90;;;;;;5030565;28;20029;-59
2022/02/12 07:39:32;;;;;;;20.35;4.00;;;1.70;99.90;;;;;;5030763;28;20033;-59
2022/02/12 07:41:58;;;;;;;24.02;3.92;;;1.70;99.90;;;;;;5030508;28;20390;-59
2022/02/12 07:44:24;;;;;;;20.13;3.42;;;1.70;99.90;;;;;;5030569;28;20449;-59
2022/02/12 07:46:49;;;;;;;12.60;3.28;;;1.80;99.90;;;;;;5030255;28;20029;-57
2022/02/12 07:49:15;;;;;;;16.10;3.60;;;1.80;99.90;;;;;;5030608;28;20486;-58
2022/02/12 07:51:40;;;;;;;18.73;3.97;;;1.90;99.90;;;;;;5030388;28;20571;-59
2022/02/12 07:54:06;;;;;;;22.60;4.30;;;1.90;99.90;;;;;;5030705;28;20032;-57
2022/02/12 07:56:32;;;;;;;19.48;3.20;;;1.90;99.90;;;;;;5030232;28;20557;-58
2022/02/12 07:58:58;;;;;;;19.67;3.72;;;1.90;99.90;;;;;;5030680;28;20029;-57
2022/02/12 08:01:23;;;;;;;22.65;4.05;;;1.90;99.90;;;;;;5030531;28;20100;-59
2022/02/12 08:03:49;;;;;;;24.65;3.17;;;2.00;99.90;;;;;;5030440;28;20108;-58
2022/02/12 08:08:59;;;;;;;17.13;4.20;;;2.10;99.90;;;;;;5030343;28;20121;-59
2022/02/12 08:11:26;;;;;;;23.45;3.75;;;2.10;99.90;;;;;;5030364;28;20053;-58
2022/02/12 08:13:52;;;;;;;25.65;5.20;;;2.20;99.90;;;;;;5030336;28;20466;-58
2022/02/12 08:16:18;;;;;;;27.80;4.13;;;2.20;99.90;;;;;;5029896;28;20029;-59
2022/02/12 08:18:44;;;;;;;19.48;3.83;;;2.30;99.90;;;;;;5030241;28;20494;-59
2022/02/12 08:21:10;;;;;;;32.63;4.50;;;2.30;99.90;;;;;;5030258;28;20029;-58
2022/02/12 08:23:36;;;;;;;16.58;3.53;;;2.40;99.90;;;;;;5030055;28;20713;-60
2022/02/12 08:26:02;;;;;;;31.08;4.85;;;2.40;99.90;;;;;;5029089;28;20046;-58
2022/02/12 08:28:28;;;;;;;25.48;3.78;;;2.40;99.90;;;;;;5030210;28;20489;-58
2022/02/12 08:30:54;;;;;;;20.05;4.45;;;2.50;99.90;;;;;;5028629;28;20021;-59
2022/02/12 08:33:20;;;;;;;35.63;4.60;;;2.50;99.90;;;;;;5025671;28;20029;-56
2022/02/12 08:35:46;;;;;;;25.88;4.03;;;2.60;99.90;;;;;;5028301;28;20032;-60
2022/02/12 08:38:12;;;;;;;16.85;4.13;;;2.70;99.90;;;;;;5028848;28;20037;-50
2022/02/12 08:40:37;;;;;;;30.33;4.60;;;2.80;99.90;;;;;;5021521;28;20468;-50
2022/02/12 08:43:03;;;;;;;23.05;4.20;;;2.90;99.90;;;;;;5019241;28;20033;-52
2022/02/12 08:45:29;;;;;;;19.85;5.00;;;3.10;99.90;;;;;;5029345;28;20030;-49
2022/02/12 08:47:54;;;;;;;18.35;4.82;;;3.20;99.90;;;;;;5023864;28;20124;-51
2022/02/12 08:50:20;;;;;;;21.70;4.88;;;3.30;99.90;;;;;;5027239;28;20028;-52
2022/02/12 08:52:46;;;;;;;22.85;4.70;;;3.40;99.90;;;;;;5019409;28;20391;-51
2022/02/12 08:55:13;;;;;;;18.77;4.25;;;3.40;99.90;;;;;;5018204;28;20041;-55
2022/02/12 08:57:38;;;;;;;18.00;4.78;;;3.50;99.90;;;;;;5020604;28;20025;-58
2022/02/12 09:00:06;;;;;;;26.92;4.93;;;3.50;99.90;;;;;;5024906;28;20088;-55
2022/02/12 09:02:32;;;;;;;15.25;4.43;;;3.50;99.90;;;;;;5025241;28;20064;-53
2022/02/12 09:04:57;;;;;;;26.20;4.90;;;3.60;99.90;;;;;;5024740;28;20058;-57
2022/02/12 09:07:24;;;;;;;18.83;4.15;;;3.60;99.90;;;;;;5021413;28;20022;-55
2022/02/12 09:09:49;;;;;;;24.90;4.35;;;3.70;99.90;;;;;;5025770;28;20395;-55
2022/02/12 09:12:16;;;;;;;14.82;3.88;;;3.70;99.90;;;;;;5022505;28;20101;-58
2022/02/12 09:14:42;;;;;;;28.67;4.72;;;3.70;99.90;;;;;;5019432;28;20088;-56
2022/02/12 09:17:09;;;;;;;20.85;5.03;;;3.80;99.90;;;;;;5027142;28;20471;-55
2022/02/12 09:19:35;;;;;;;19.60;4.82;;;3.80;99.90;;;;;;5029727;28;20116;-54
2022/02/12 09:22:01;;;;;;;20.92;4.88;;;3.90;99.90;;;;;;5019152;28;20056;-54
2022/02/12 09:24:26;;;;;;;23.35;5.00;;;4.00;99.90;;;;;;5021596;28;20037;-59
2022/02/12 09:26:52;;;;;;;21.30;5.78;;;4.00;99.90;;;;;;5020427;28;20040;-57
2022/02/12 09:29:18;;;;;;;17.38;4.22;;;4.00;99.90;;;;;;5022942;28;20030;-58
2022/02/12 09:31:43;;;;;;;21.67;3.78;;;4.00;99.90;;;;;;5025404;28;20034;-52
2022/02/12 09:34:09;;;;;;;16.27;4.70;;;3.90;99.90;;;;;;5020676;28;20025;-57
2022/02/12 09:36:37;;;;;;;12.82;3.78;;;4.00;99.90;;;;;;5024754;28;20475;-56
2022/02/12 09:39:02;;;;;;;16.58;4.53;;;4.00;99.90;;;;;;5029002;28;20021;-58
2022/02/12 09:41:28;;;;;;;33.28;4.38;;;4.10;99.90;;;;;;5046919;28;20035;-57
2022/02/12 09:43:55;;;;;;;15.05;4.13;;;4.00;99.90;;;;;;5048916;28;20028;-56
2022/02/12 09:46:45;;;;;;;21.55;4.47;;;4.10;99.90;;;;;;5041506;28;20048;-59
2022/02/12 09:49:11;;;;;;;20.65;4.30;;;4.00;99.90;;;;;;5026393;28;20063;-57
2022/02/12 09:51:40;;;;;;;18.90;4.30;;;4.00;99.90;;;;;;5029589;28;20065;-53
2022/02/12 09:54:05;;;;;;;24.77;3.70;;;4.20;99.90;;;;;;5017297;28;20032;-59
2022/02/12 09:56:34;;;;;;;16.25;3.75;;;4.20;99.90;;;;;;5030363;28;20030;-59
2022/02/12 09:58:59;;;;;;;20.30;4.00;;;4.10;99.90;;;;;;5029573;28;20095;-59
2022/02/12 10:01:25;;;;;;;16.77;3.88;;;4.10;99.90;;;;;;5023736;28;20026;-60
2022/02/12 10:03:52;;;;;;;25.90;4.38;;;4.10;99.90;;;;;;5032636;28;20105;-57
2022/02/12 10:06:41;;;;;;;17.55;3.45;;;4.20;99.90;;;;;;5029705;28;20124;-57
2022/02/12 10:09:08;;;;;;;23.35;7.32;;;4.30;99.90;;;;;;5022842;28;20541;-57
2022/02/12 10:11:47;;;;;;;20.60;5.95;;;4.40;99.90;;;;;;5022718;28;20386;-54
2022/02/12 10:14:18;;;;;;;17.48;4.78;;;4.70;99.90;;;;;;5029754;28;20030;-55
2022/02/12 10:17:02;;;;;;;16.98;3.17;;;4.80;99.90;;;;;;5030817;28;20033;-57
2022/02/12 10:19:40;;;;;;;18.60;3.63;;;4.70;99.90;;;;;;5030306;28;20381;-57
2022/02/12 10:22:05;;;;;;;15.32;3.38;;;4.70;99.90;;;;;;5031634;28;20118;-59
2022/02/12 10:25:03;;;;;;;13.55;3.25;;;4.90;99.90;;;;;;5027191;28;20050;-58
2022/02/12 10:27:30;;;;;;;19.08;4.13;;;4.80;99.90;;;;;;5016921;28;20084;-58
2022/02/12 10:29:58;;;;;;;20.05;4.47;;;4.70;99.90;;;;;;5014176;28;20099;-57
2022/02/12 10:32:25;;;;;;;18.85;3.72;;;4.80;99.90;;;;;;5031779;28;20029;-58
2022/02/12 10:34:52;;;;;;;24.52;3.90;;;4.80;99.90;;;;;;5031627;28;20033;-58
2022/02/12 10:37:23;;;;;;;30.17;3.58;;;4.80;99.90;;;;;;5032059;28;20073;-56
2022/02/12 10:39:52;;;;;;;18.33;3.00;;;4.90;99.90;;;;;;5031280;28;20025;-56
2022/02/12 10:42:18;;;;;;;22.52;4.38;;;4.90;99.90;;;;;;5031503;28;20068;-57
2022/02/12 10:44:46;;;;;;;13.25;3.88;;;5.00;99.90;;;;;;5030070;28;20434;-57
2022/02/12 10:47:15;;;;;;;15.68;3.28;;;5.00;99.90;;;;;;5029091;28;20034;-58
2022/02/12 10:49:45;;;;;;;16.33;3.63;;;5.10;99.90;;;;;;5030910;28;20533;-56
2022/02/12 10:52:11;;;;;;;13.27;3.83;;;5.20;99.90;;;;;;5031063;28;20033;-57
2022/02/12 10:54:44;;;;;;;22.52;4.78;;;5.40;99.90;;;;;;5031089;28;20053;-57
2022/02/12 10:57:10;;;;;;;15.45;3.47;;;5.40;99.90;;;;;;5029099;28;20022;-57
2022/02/12 10:59:41;;;;;;;23.98;3.65;;;5.40;99.90;;;;;;5030765;28;20026;-54
2022/02/12 11:02:09;;;;;;;16.02;4.20;;;5.50;99.90;;;;;;5022512;28;20053;-58
2022/02/12 11:04:40;;;;;;;14.40;3.45;;;5.70;99.90;;;;;;5022716;28;20774;-58
2022/02/12 11:07:16;;;;;;;11.07;3.13;;;5.70;99.90;;;;;;5026058;28;20475;-58
2022/02/12 11:09:46;;;;;;;16.00;3.90;;;5.60;99.90;;;;;;5013777;28;20233;-58
2022/02/12 11:12:14;;;;;;;21.42;4.25;;;5.70;99.90;;;;;;5042812;28;20415;-57
2022/02/12 11:14:43;;;;;;;16.90;2.95;;;5.60;99.90;;;;;;5031888;28;20029;-58
2022/02/12 11:17:15;;;;;;;19.15;4.57;;;5.60;99.90;;;;;;5017040;28;20048;-58
2022/02/12 11:19:43;;;;;;;19.55;3.22;;;5.70;99.90;;;;;;5032402;28;20452;-59
2022/02/12 11:22:10;;;;;;;14.43;3.35;;;5.70;99.90;;;;;;5030595;28;20029;-58
2022/02/12 11:24:40;;;;;;;12.60;3.25;;;5.60;99.90;;;;;;5031135;28;20083;-58
2022/02/12 11:27:24;;;;;;;14.65;3.60;;;5.90;99.90;;;;;;5031188;28;20030;-57
2022/02/12 11:29:52;;;;;;;12.95;2.78;;;6.00;99.90;;;;;;5030833;28;20030;-58
2022/02/12 11:32:23;;;;;;;11.80;2.95;;;6.00;99.90;;;;;;5027295;28;20018;-58
2022/02/12 11:35:06;;;;;;;12.40;3.15;;;6.00;99.90;;;;;;5024839;28;20029;-57
2022/02/12 11:37:45;;;;;;;14.90;2.92;;;6.00;99.90;;;;;;5018716;28;20099;-58
2022/02/12 11:40:13;;;;;;;25.52;3.67;;;6.00;99.90;;;;;;5031104;28;20091;-58
2022/02/12 11:42:46;;;;;;;19.95;3.97;;;6.10;99.90;;;;;;5030319;28;20364;-58
2022/02/12 11:45:37;;;;;;;10.32;3.50;;;6.30;99.90;;;;;;5030531;28;20395;-58
2022/02/12 11:48:18;;;;;;;29.67;8.77;;;6.30;99.90;;;;;;5030403;28;20155;-58
2022/02/12 11:50:50;;;;;;;18.05;6.75;;;6.40;99.90;;;;;;5029480;28;20083;-58
2022/02/12 11:53:28;;;;;;;31.65;8.68;;;6.20;99.90;;;;;;5030229;28;20376;-57
2022/02/12 11:55:54;;;;;;;19.00;4.15;;;6.30;99.90;;;;;;5025165;28;20026;-57
2022/02/12 11:58:45;;;;;;;27.17;7.32;;;6.10;99.90;;;;;;5041306;28;20048;-53
2022/02/12 12:01:27;;;;;;;30.48;9.40;;;6.20;99.90;;;;;;5019425;28;20053;-58
2022/02/12 12:04:10;;;;;;;24.10;6.68;;;6.70;99.90;;;;;;5029625;28;20494;-56
2022/02/12 12:06:38;;;;;;;14.93;3.50;;;7.10;97.80;;;;;;5021061;28;20172;-57
2022/02/12 12:09:07;;;;;;;19.77;3.88;;;7.20;92.80;;;;;;5029070;28;20067;-56
2022/02/12 12:11:35;;;;;;;17.88;6.70;;;7.20;93.70;;;;;;5029415;28;20033;-56
2022/02/12 12:14:22;;;;;;;18.60;3.85;;;7.50;92.40;;;;;;5021144;28;20030;-56
2022/02/12 12:16:59;;;;;;;19.20;3.47;;;7.90;83.80;;;;;;5014808;28;20196;-56
2022/02/12 12:19:30;;;;;;;14.90;4.32;;;8.20;77.90;;;;;;5014861;28;20077;-56
2022/02/12 12:21:57;;;;;;;28.35;9.45;;;8.40;75.30;;;;;;5013076;28;20079;-54
2022/02/12 12:24:22;;;;;;;17.85;5.53;;;8.80;72.20;;;;;;5022618;28;20060;-57
2022/02/12 12:26:49;;;;;;;17.08;5.57;;;8.90;68.80;;;;;;5026847;28;20582;-53
2022/02/12 12:32:15;;;;;;;15.35;3.35;;;9.30;66.70;;;;;;5029324;28;20072;-57
2022/02/12 12:34:52;;;;;;;18.88;4.18;;;8.50;66.60;;;;;;5030360;28;20033;-57
2022/02/12 12:37:23;;;;;;;15.90;3.38;;;8.70;69.20;;;;;;5041265;28;20048;-57
2022/02/12 12:39:50;;;;;;;12.38;2.83;;;9.10;71.30;;;;;;5029312;28;20435;-56
2022/02/12 12:42:21;;;;;;;13.13;3.75;;;9.00;69.50;;;;;;5027476;28;20368;-57
2022/02/12 12:44:58;;;;;;;15.67;4.10;;;8.70;70.40;;;;;;5027893;28;20026;-57
2022/02/12 12:47:24;;;;;;;10.15;3.10;;;8.80;72.50;;;;;;5018595;28;20111;-55
2022/02/12 12:49:58;;;;;;;11.95;4.00;;;8.50;71.60;;;;;;5023583;28;20053;-55
2022/02/12 12:52:27;;;;;;;15.65;4.97;;;8.20;76.20;;;;;;5021753;28;20037;-57
2022/02/12 12:55:25;;;;;;;19.88;4.90;;;7.90;76.70;;;;;;5017152;28;20139;-57
2022/02/12 12:57:51;;;;;;;12.70;4.13;;;7.60;79.10;;;;;;4999067;28;20065;-54
2022/02/12 13:00:18;;;;;;;21.00;4.15;;;7.30;84.00;;;;;;5008868;28;20065;-57
2022/02/12 13:02:52;;;;;;;18.02;3.67;;;7.40;86.10;;;;;;5009111;28;20109;-57